<?xml version="1.0" encoding="UTF-8" standalone="no" ?>
<gpx xmlns="http://www.topografix.com/GPX/1/1" xmlns:xsi="http://www.w3.org/2001/XMLSchema-instance" xsi:schemaLocation="http://www.topografix.com/GPX/1/1 http://www.topografix.com/GPX/1/1/gpx.xsd" version="1.1" creator="VisuGPX - https://www.visugpx.com">
  <metadata>
    <name>BRC Viry Châtillon les étangs</name>
    <desc><![CDATA[Effectuée avec Pascale le 1 septembre 2026

extension possible à 10 km en ajoutant un tour de l'etang de la plaine basse et en prolongeant un peu la visite de la ville]]></desc>
  </metadata>
  <wpt lat="48.67058" lon="2.38079">
    <ele>34.1</ele>
    <name><![CDATA[Point de passage 1]]></name>
  </wpt>
  <wpt lat="48.67063" lon="2.38067">
    <ele>34.3</ele>
    <name><![CDATA[Point de passage 2]]></name>
  </wpt>
  <trk>
    <name><![CDATA[BRC Viry Châtillon les étangs]]></name>
    <extensions>
      <line xmlns="http://www.topografix.com/GPX/gpx_style/0/2">
        <color>0000FF</color>
        <opacity>1</opacity>
        <width>4</width>
      </line>
    </extensions>
    <trkseg>
      <trkpt lat="48.67056" lon="2.38076">
        <ele>34</ele>
        <time>2026-09-01T12:18:44.000Z</time>
      </trkpt>
      <trkpt lat="48.67052" lon="2.38142">
        <ele>33.6</ele>
      </trkpt>
      <trkpt lat="48.67074" lon="2.38224">
        <ele>33.2</ele>
      </trkpt>
      <trkpt lat="48.67212" lon="2.38447">
        <ele>36</ele>
        <time>2026-09-01T12:19:06.000Z</time>
      </trkpt>
      <trkpt lat="48.67226" lon="2.38475">
        <ele>34</ele>
        <time>2026-09-01T12:19:29.000Z</time>
      </trkpt>
      <trkpt lat="48.6724" lon="2.38502">
        <ele>34</ele>
        <time>2026-09-01T12:19:51.000Z</time>
      </trkpt>
      <trkpt lat="48.67255" lon="2.3853">
        <ele>35</ele>
        <time>2026-09-01T12:20:13.000Z</time>
      </trkpt>
      <trkpt lat="48.67262" lon="2.38563">
        <ele>35</ele>
        <time>2026-09-01T12:20:37.000Z</time>
      </trkpt>
      <trkpt lat="48.67249" lon="2.38592">
        <ele>35</ele>
        <time>2026-09-01T12:21:00.000Z</time>
      </trkpt>
      <trkpt lat="48.6723" lon="2.38613">
        <ele>35</ele>
        <time>2026-09-01T12:21:23.000Z</time>
      </trkpt>
      <trkpt lat="48.67214" lon="2.38638">
        <ele>35</ele>
        <time>2026-09-01T12:21:45.000Z</time>
      </trkpt>
      <trkpt lat="48.67196" lon="2.38659">
        <ele>35</ele>
        <time>2026-09-01T12:22:07.000Z</time>
      </trkpt>
      <trkpt lat="48.67179" lon="2.38683">
        <ele>34</ele>
        <time>2026-09-01T12:22:28.000Z</time>
      </trkpt>
      <trkpt lat="48.67169" lon="2.38714">
        <ele>34</ele>
        <time>2026-09-01T12:22:51.000Z</time>
      </trkpt>
      <trkpt lat="48.67169" lon="2.38748">
        <ele>35</ele>
        <time>2026-09-01T12:23:11.000Z</time>
      </trkpt>
      <trkpt lat="48.67171" lon="2.38784">
        <ele>36</ele>
        <time>2026-09-01T12:23:33.000Z</time>
      </trkpt>
      <trkpt lat="48.67174" lon="2.38819">
        <ele>35</ele>
        <time>2026-09-01T12:23:57.000Z</time>
      </trkpt>
      <trkpt lat="48.67178" lon="2.38853">
        <ele>37</ele>
        <time>2026-09-01T12:24:25.000Z</time>
      </trkpt>
      <trkpt lat="48.6717" lon="2.38885">
        <ele>36</ele>
        <time>2026-09-01T12:24:52.000Z</time>
      </trkpt>
      <trkpt lat="48.67158" lon="2.38915">
        <ele>35</ele>
        <time>2026-09-01T12:25:15.000Z</time>
      </trkpt>
      <trkpt lat="48.67171" lon="2.38942">
        <ele>35</ele>
        <time>2026-09-01T12:25:37.000Z</time>
      </trkpt>
      <trkpt lat="48.67185" lon="2.38971">
        <ele>35</ele>
        <time>2026-09-01T12:25:59.000Z</time>
      </trkpt>
      <trkpt lat="48.67174" lon="2.39001">
        <ele>35</ele>
        <time>2026-09-01T12:26:22.000Z</time>
      </trkpt>
      <trkpt lat="48.67155" lon="2.39021">
        <ele>37</ele>
        <time>2026-09-01T12:26:39.000Z</time>
      </trkpt>
      <trkpt lat="48.67137" lon="2.39044">
        <ele>34</ele>
        <time>2026-09-01T12:27:06.000Z</time>
      </trkpt>
      <trkpt lat="48.67119" lon="2.39066">
        <ele>36</ele>
        <time>2026-09-01T12:27:29.000Z</time>
      </trkpt>
      <trkpt lat="48.67096" lon="2.39071">
        <ele>35</ele>
        <time>2026-09-01T12:27:52.000Z</time>
      </trkpt>
      <trkpt lat="48.67073" lon="2.39069">
        <ele>31</ele>
        <time>2026-09-01T12:28:16.000Z</time>
      </trkpt>
      <trkpt lat="48.67051" lon="2.39063">
        <ele>35</ele>
        <time>2026-09-01T12:28:35.000Z</time>
      </trkpt>
      <trkpt lat="48.67029" lon="2.39056">
        <ele>34</ele>
        <time>2026-09-01T12:28:56.000Z</time>
      </trkpt>
      <trkpt lat="48.67006" lon="2.39048">
        <ele>36</ele>
        <time>2026-09-01T12:29:20.000Z</time>
      </trkpt>
      <trkpt lat="48.66986" lon="2.39031">
        <ele>34</ele>
        <time>2026-09-01T12:29:43.000Z</time>
      </trkpt>
      <trkpt lat="48.66969" lon="2.3901">
        <ele>36</ele>
        <time>2026-09-01T12:30:34.000Z</time>
      </trkpt>
      <trkpt lat="48.66948" lon="2.38993">
        <ele>35</ele>
        <time>2026-09-01T12:31:58.000Z</time>
      </trkpt>
      <trkpt lat="48.66931" lon="2.38971">
        <ele>35</ele>
        <time>2026-09-01T12:32:22.000Z</time>
      </trkpt>
      <trkpt lat="48.66912" lon="2.3895">
        <ele>38</ele>
        <time>2026-09-01T12:32:46.000Z</time>
      </trkpt>
      <trkpt lat="48.66889" lon="2.38948">
        <ele>35</ele>
        <time>2026-09-01T12:33:11.000Z</time>
      </trkpt>
      <trkpt lat="48.66867" lon="2.38941">
        <ele>35</ele>
        <time>2026-09-01T12:33:37.000Z</time>
      </trkpt>
      <trkpt lat="48.66843" lon="2.38937">
        <ele>36</ele>
        <time>2026-09-01T12:33:59.000Z</time>
      </trkpt>
      <trkpt lat="48.66867" lon="2.38941">
        <ele>35</ele>
        <time>2026-09-01T12:36:44.000Z</time>
      </trkpt>
      <trkpt lat="48.6689" lon="2.38947">
        <ele>35</ele>
        <time>2026-09-01T12:37:08.000Z</time>
      </trkpt>
      <trkpt lat="48.66913" lon="2.38949">
        <ele>35</ele>
        <time>2026-09-01T12:37:33.000Z</time>
      </trkpt>
      <trkpt lat="48.66932" lon="2.3897">
        <ele>35</ele>
        <time>2026-09-01T12:37:56.000Z</time>
      </trkpt>
      <trkpt lat="48.66949" lon="2.38992">
        <ele>36</ele>
        <time>2026-09-01T12:38:17.000Z</time>
      </trkpt>
      <trkpt lat="48.66957" lon="2.39024">
        <ele>33</ele>
        <time>2026-09-01T12:38:44.000Z</time>
      </trkpt>
      <trkpt lat="48.66954" lon="2.39059">
        <ele>33</ele>
        <time>2026-09-01T12:39:08.000Z</time>
      </trkpt>
      <trkpt lat="48.66955" lon="2.39093">
        <ele>36</ele>
        <time>2026-09-01T12:39:30.000Z</time>
      </trkpt>
      <trkpt lat="48.66949" lon="2.39127">
        <ele>36</ele>
        <time>2026-09-01T12:39:51.000Z</time>
      </trkpt>
      <trkpt lat="48.66935" lon="2.39155">
        <ele>35</ele>
        <time>2026-09-01T12:40:25.000Z</time>
      </trkpt>
      <trkpt lat="48.66916" lon="2.39177">
        <ele>34</ele>
        <time>2026-09-01T12:40:49.000Z</time>
      </trkpt>
      <trkpt lat="48.66897" lon="2.39196">
        <ele>34</ele>
        <time>2026-09-01T12:41:11.000Z</time>
      </trkpt>
      <trkpt lat="48.6688" lon="2.39218">
        <ele>35</ele>
        <time>2026-09-01T12:41:33.000Z</time>
      </trkpt>
      <trkpt lat="48.66863" lon="2.39243">
        <ele>36</ele>
        <time>2026-09-01T12:41:56.000Z</time>
      </trkpt>
      <trkpt lat="48.66854" lon="2.39275">
        <ele>35</ele>
        <time>2026-09-01T12:43:40.000Z</time>
      </trkpt>
      <trkpt lat="48.66841" lon="2.39305">
        <ele>35</ele>
        <time>2026-09-01T12:44:16.000Z</time>
      </trkpt>
      <trkpt lat="48.66823" lon="2.39329">
        <ele>36</ele>
        <time>2026-09-01T12:44:37.000Z</time>
      </trkpt>
      <trkpt lat="48.66804" lon="2.3935">
        <ele>35</ele>
        <time>2026-09-01T12:45:02.000Z</time>
      </trkpt>
      <trkpt lat="48.66786" lon="2.3937">
        <ele>34</ele>
        <time>2026-09-01T12:45:27.000Z</time>
      </trkpt>
      <trkpt lat="48.66766" lon="2.39389">
        <ele>34</ele>
        <time>2026-09-01T12:45:50.000Z</time>
      </trkpt>
      <trkpt lat="48.66753" lon="2.39418">
        <ele>34</ele>
        <time>2026-09-01T12:46:14.000Z</time>
      </trkpt>
      <trkpt lat="48.6673" lon="2.39418">
        <ele>35</ele>
        <time>2026-09-01T12:46:45.000Z</time>
      </trkpt>
      <trkpt lat="48.66711" lon="2.39397">
        <ele>35</ele>
        <time>2026-09-01T12:47:07.000Z</time>
      </trkpt>
      <trkpt lat="48.66695" lon="2.39422">
        <ele>34</ele>
        <time>2026-09-01T12:47:33.000Z</time>
      </trkpt>
      <trkpt lat="48.66672" lon="2.39431">
        <ele>34</ele>
        <time>2026-09-01T12:47:53.000Z</time>
      </trkpt>
      <trkpt lat="48.66656" lon="2.39406">
        <ele>35</ele>
        <time>2026-09-01T12:48:17.000Z</time>
      </trkpt>
      <trkpt lat="48.66636" lon="2.39388">
        <ele>34</ele>
        <time>2026-09-01T12:48:37.000Z</time>
      </trkpt>
      <trkpt lat="48.66617" lon="2.39369">
        <ele>34</ele>
        <time>2026-09-01T12:48:59.000Z</time>
      </trkpt>
      <trkpt lat="48.66598" lon="2.3935">
        <ele>33</ele>
        <time>2026-09-01T12:49:20.000Z</time>
      </trkpt>
      <trkpt lat="48.66581" lon="2.39328">
        <ele>34</ele>
        <time>2026-09-01T12:49:42.000Z</time>
      </trkpt>
      <trkpt lat="48.66561" lon="2.3931">
        <ele>33</ele>
        <time>2026-09-01T12:50:03.000Z</time>
      </trkpt>
      <trkpt lat="48.66543" lon="2.3929">
        <ele>33</ele>
        <time>2026-09-01T12:50:26.000Z</time>
      </trkpt>
      <trkpt lat="48.66521" lon="2.39281">
        <ele>33</ele>
        <time>2026-09-01T12:50:52.000Z</time>
      </trkpt>
      <trkpt lat="48.66499" lon="2.39269">
        <ele>34</ele>
        <time>2026-09-01T12:51:30.000Z</time>
      </trkpt>
      <trkpt lat="48.6649" lon="2.39238">
        <ele>34</ele>
        <time>2026-09-01T12:51:52.000Z</time>
      </trkpt>
      <trkpt lat="48.66471" lon="2.39217">
        <ele>34</ele>
        <time>2026-09-01T12:52:12.000Z</time>
      </trkpt>
      <trkpt lat="48.66452" lon="2.39197">
        <ele>35</ele>
        <time>2026-09-01T12:52:30.000Z</time>
      </trkpt>
      <trkpt lat="48.66433" lon="2.39179">
        <ele>34</ele>
        <time>2026-09-01T12:52:51.000Z</time>
      </trkpt>
      <trkpt lat="48.66413" lon="2.39161">
        <ele>34</ele>
        <time>2026-09-01T12:53:13.000Z</time>
      </trkpt>
      <trkpt lat="48.66393" lon="2.39141">
        <ele>34</ele>
        <time>2026-09-01T12:53:37.000Z</time>
      </trkpt>
      <trkpt lat="48.66373" lon="2.39126">
        <ele>34</ele>
        <time>2026-09-01T12:54:01.000Z</time>
      </trkpt>
      <trkpt lat="48.66356" lon="2.39101">
        <ele>34</ele>
        <time>2026-09-01T12:54:25.000Z</time>
      </trkpt>
      <trkpt lat="48.66349" lon="2.39067">
        <ele>34</ele>
        <time>2026-09-01T12:54:49.000Z</time>
      </trkpt>
      <trkpt lat="48.66332" lon="2.39045">
        <ele>35</ele>
        <time>2026-09-01T12:55:11.000Z</time>
      </trkpt>
      <trkpt lat="48.66313" lon="2.39026">
        <ele>34</ele>
        <time>2026-09-01T12:55:31.000Z</time>
      </trkpt>
      <trkpt lat="48.66294" lon="2.39008">
        <ele>34</ele>
        <time>2026-09-01T12:55:55.000Z</time>
      </trkpt>
      <trkpt lat="48.66275" lon="2.38989">
        <ele>35</ele>
        <time>2026-09-01T12:56:15.000Z</time>
      </trkpt>
      <trkpt lat="48.66256" lon="2.38968">
        <ele>34</ele>
        <time>2026-09-01T12:56:37.000Z</time>
      </trkpt>
      <trkpt lat="48.66236" lon="2.38949">
        <ele>35</ele>
        <time>2026-09-01T12:56:59.000Z</time>
      </trkpt>
      <trkpt lat="48.6622" lon="2.38925">
        <ele>35</ele>
        <time>2026-09-01T12:57:31.000Z</time>
      </trkpt>
      <trkpt lat="48.66205" lon="2.389">
        <ele>35</ele>
        <time>2026-09-01T12:59:11.000Z</time>
      </trkpt>
      <trkpt lat="48.6621" lon="2.38867">
        <ele>34</ele>
        <time>2026-09-01T12:59:32.000Z</time>
      </trkpt>
      <trkpt lat="48.66227" lon="2.38845">
        <ele>34</ele>
        <time>2026-09-01T13:01:51.000Z</time>
      </trkpt>
      <trkpt lat="48.66244" lon="2.3882">
        <ele>34</ele>
        <time>2026-09-01T13:02:28.000Z</time>
      </trkpt>
      <trkpt lat="48.66264" lon="2.38801">
        <ele>34</ele>
        <time>2026-09-01T13:04:12.000Z</time>
      </trkpt>
      <trkpt lat="48.66282" lon="2.38779">
        <ele>36</ele>
        <time>2026-09-01T13:04:35.000Z</time>
      </trkpt>
      <trkpt lat="48.66301" lon="2.38759">
        <ele>35</ele>
        <time>2026-09-01T13:04:55.000Z</time>
      </trkpt>
      <trkpt lat="48.66317" lon="2.38734">
        <ele>35</ele>
        <time>2026-09-01T13:05:16.000Z</time>
      </trkpt>
      <trkpt lat="48.66334" lon="2.38709">
        <ele>34</ele>
        <time>2026-09-01T13:05:39.000Z</time>
      </trkpt>
      <trkpt lat="48.66348" lon="2.38682">
        <ele>35</ele>
        <time>2026-09-01T13:06:00.000Z</time>
      </trkpt>
      <trkpt lat="48.66367" lon="2.38662">
        <ele>34</ele>
        <time>2026-09-01T13:06:23.000Z</time>
      </trkpt>
      <trkpt lat="48.66384" lon="2.3864">
        <ele>35</ele>
        <time>2026-09-01T13:06:46.000Z</time>
      </trkpt>
      <trkpt lat="48.66403" lon="2.38619">
        <ele>34</ele>
        <time>2026-09-01T13:07:09.000Z</time>
      </trkpt>
      <trkpt lat="48.66419" lon="2.38594">
        <ele>34</ele>
        <time>2026-09-01T13:07:31.000Z</time>
      </trkpt>
      <trkpt lat="48.66433" lon="2.38567">
        <ele>34</ele>
        <time>2026-09-01T13:07:54.000Z</time>
      </trkpt>
      <trkpt lat="48.66447" lon="2.38537">
        <ele>35</ele>
        <time>2026-09-01T13:08:12.000Z</time>
      </trkpt>
      <trkpt lat="48.66463" lon="2.38511">
        <ele>34</ele>
        <time>2026-09-01T13:08:38.000Z</time>
      </trkpt>
      <trkpt lat="48.66477" lon="2.38483">
        <ele>34</ele>
        <time>2026-09-01T13:09:01.000Z</time>
      </trkpt>
      <trkpt lat="48.66493" lon="2.38459">
        <ele>36</ele>
        <time>2026-09-01T13:09:24.000Z</time>
      </trkpt>
      <trkpt lat="48.6651" lon="2.38436">
        <ele>34</ele>
        <time>2026-09-01T13:09:45.000Z</time>
      </trkpt>
      <trkpt lat="48.66523" lon="2.38409">
        <ele>35</ele>
        <time>2026-09-01T13:10:03.000Z</time>
      </trkpt>
      <trkpt lat="48.66545" lon="2.38397">
        <ele>35</ele>
        <time>2026-09-01T13:10:25.000Z</time>
      </trkpt>
      <trkpt lat="48.66565" lon="2.38414">
        <ele>36</ele>
        <time>2026-09-01T13:10:47.000Z</time>
      </trkpt>
      <trkpt lat="48.66582" lon="2.38436">
        <ele>36</ele>
        <time>2026-09-01T13:11:06.000Z</time>
      </trkpt>
      <trkpt lat="48.66597" lon="2.38462">
        <ele>36</ele>
        <time>2026-09-01T13:11:31.000Z</time>
      </trkpt>
      <trkpt lat="48.66611" lon="2.38489">
        <ele>36</ele>
        <time>2026-09-01T13:11:55.000Z</time>
      </trkpt>
      <trkpt lat="48.66626" lon="2.38516">
        <ele>36</ele>
        <time>2026-09-01T13:12:16.000Z</time>
      </trkpt>
      <trkpt lat="48.66642" lon="2.38543">
        <ele>35</ele>
        <time>2026-09-01T13:12:38.000Z</time>
      </trkpt>
      <trkpt lat="48.66658" lon="2.38569">
        <ele>35</ele>
        <time>2026-09-01T13:12:59.000Z</time>
      </trkpt>
      <trkpt lat="48.66675" lon="2.38593">
        <ele>35</ele>
        <time>2026-09-01T13:13:21.000Z</time>
      </trkpt>
      <trkpt lat="48.66694" lon="2.38613">
        <ele>35</ele>
        <time>2026-09-01T13:13:51.000Z</time>
      </trkpt>
      <trkpt lat="48.66716" lon="2.386">
        <ele>35</ele>
        <time>2026-09-01T13:23:24.000Z</time>
      </trkpt>
      <trkpt lat="48.66721" lon="2.38566">
        <ele>35</ele>
        <time>2026-09-01T13:24:00.000Z</time>
      </trkpt>
      <trkpt lat="48.66726" lon="2.38532">
        <ele>35</ele>
        <time>2026-09-01T13:24:32.000Z</time>
      </trkpt>
      <trkpt lat="48.66729" lon="2.38499">
        <ele>35</ele>
        <time>2026-09-01T13:24:58.000Z</time>
      </trkpt>
      <trkpt lat="48.66742" lon="2.38469">
        <ele>34</ele>
        <time>2026-09-01T13:25:25.000Z</time>
      </trkpt>
      <trkpt lat="48.66754" lon="2.38439">
        <ele>35</ele>
        <time>2026-09-01T13:25:55.000Z</time>
      </trkpt>
      <trkpt lat="48.66768" lon="2.3841">
        <ele>35</ele>
        <time>2026-09-01T13:26:16.000Z</time>
      </trkpt>
      <trkpt lat="48.66782" lon="2.38382">
        <ele>35</ele>
        <time>2026-09-01T13:26:52.000Z</time>
      </trkpt>
      <trkpt lat="48.66805" lon="2.38377">
        <ele>35</ele>
        <time>2026-09-01T13:27:15.000Z</time>
      </trkpt>
      <trkpt lat="48.66829" lon="2.38379">
        <ele>35</ele>
        <time>2026-09-01T13:27:39.000Z</time>
      </trkpt>
      <trkpt lat="48.66846" lon="2.38356">
        <ele>34</ele>
        <time>2026-09-01T13:28:10.000Z</time>
      </trkpt>
      <trkpt lat="48.66846" lon="2.38322">
        <ele>35</ele>
        <time>2026-09-01T13:28:36.000Z</time>
      </trkpt>
      <trkpt lat="48.6684" lon="2.38289">
        <ele>36</ele>
        <time>2026-09-01T13:29:01.000Z</time>
      </trkpt>
      <trkpt lat="48.66833" lon="2.38255">
        <ele>36</ele>
        <time>2026-09-01T13:29:29.000Z</time>
      </trkpt>
      <trkpt lat="48.66848" lon="2.38229">
        <ele>36</ele>
        <time>2026-09-01T13:29:53.000Z</time>
      </trkpt>
      <trkpt lat="48.66861" lon="2.38201">
        <ele>36</ele>
        <time>2026-09-01T13:30:19.000Z</time>
      </trkpt>
      <trkpt lat="48.66869" lon="2.38169">
        <ele>35</ele>
        <time>2026-09-01T13:30:41.000Z</time>
      </trkpt>
      <trkpt lat="48.66873" lon="2.38135">
        <ele>35</ele>
        <time>2026-09-01T13:31:05.000Z</time>
      </trkpt>
      <trkpt lat="48.66877" lon="2.381">
        <ele>35</ele>
        <time>2026-09-01T13:31:28.000Z</time>
      </trkpt>
      <trkpt lat="48.66883" lon="2.38067">
        <ele>35</ele>
        <time>2026-09-01T13:31:49.000Z</time>
      </trkpt>
      <trkpt lat="48.66885" lon="2.38033">
        <ele>35</ele>
        <time>2026-09-01T13:32:11.000Z</time>
      </trkpt>
      <trkpt lat="48.6689" lon="2.37998">
        <ele>36</ele>
        <time>2026-09-01T13:32:33.000Z</time>
      </trkpt>
      <trkpt lat="48.66872" lon="2.37975">
        <ele>36</ele>
        <time>2026-09-01T13:34:47.000Z</time>
      </trkpt>
      <trkpt lat="48.66859" lon="2.37947">
        <ele>37</ele>
        <time>2026-09-01T13:35:27.000Z</time>
      </trkpt>
      <trkpt lat="48.66869" lon="2.37916">
        <ele>37</ele>
        <time>2026-09-01T13:36:01.000Z</time>
      </trkpt>
      <trkpt lat="48.66883" lon="2.37888">
        <ele>37</ele>
        <time>2026-09-01T13:36:27.000Z</time>
      </trkpt>
      <trkpt lat="48.66901" lon="2.37867">
        <ele>37</ele>
        <time>2026-09-01T13:36:49.000Z</time>
      </trkpt>
      <trkpt lat="48.6692" lon="2.37847">
        <ele>37</ele>
        <time>2026-09-01T13:37:13.000Z</time>
      </trkpt>
      <trkpt lat="48.66934" lon="2.3782">
        <ele>37</ele>
        <time>2026-09-01T13:37:44.000Z</time>
      </trkpt>
      <trkpt lat="48.66934" lon="2.37786">
        <ele>38</ele>
        <time>2026-09-01T13:38:08.000Z</time>
      </trkpt>
      <trkpt lat="48.66928" lon="2.37753">
        <ele>38</ele>
        <time>2026-09-01T13:38:34.000Z</time>
      </trkpt>
      <trkpt lat="48.66928" lon="2.37718">
        <ele>40</ele>
        <time>2026-09-01T13:39:00.000Z</time>
      </trkpt>
      <trkpt lat="48.66925" lon="2.37683">
        <ele>41</ele>
        <time>2026-09-01T13:39:31.000Z</time>
      </trkpt>
      <trkpt lat="48.66902" lon="2.37675">
        <ele>42</ele>
        <time>2026-09-01T13:40:04.000Z</time>
      </trkpt>
      <trkpt lat="48.66879" lon="2.37672">
        <ele>44</ele>
        <time>2026-09-01T13:40:34.000Z</time>
      </trkpt>
      <trkpt lat="48.66856" lon="2.37678">
        <ele>47</ele>
        <time>2026-09-01T13:41:00.000Z</time>
      </trkpt>
      <trkpt lat="48.66879" lon="2.37671">
        <ele>45</ele>
        <time>2026-09-01T13:43:20.000Z</time>
      </trkpt>
      <trkpt lat="48.66903" lon="2.37674">
        <ele>43</ele>
        <time>2026-09-01T13:43:42.000Z</time>
      </trkpt>
      <trkpt lat="48.66919" lon="2.37651">
        <ele>43</ele>
        <time>2026-09-01T13:45:14.000Z</time>
      </trkpt>
      <trkpt lat="48.66939" lon="2.37635">
        <ele>42</ele>
        <time>2026-09-01T13:45:38.000Z</time>
      </trkpt>
      <trkpt lat="48.66945" lon="2.376">
        <ele>44</ele>
        <time>2026-09-01T13:46:05.000Z</time>
      </trkpt>
      <trkpt lat="48.66931" lon="2.37571">
        <ele>45</ele>
        <time>2026-09-01T13:48:01.000Z</time>
      </trkpt>
      <trkpt lat="48.66948" lon="2.37546">
        <ele>45</ele>
        <time>2026-09-01T13:49:29.000Z</time>
      </trkpt>
      <trkpt lat="48.66934" lon="2.37519">
        <ele>49</ele>
        <time>2026-09-01T13:50:02.000Z</time>
      </trkpt>
      <trkpt lat="48.66911" lon="2.37511">
        <ele>52</ele>
        <time>2026-09-01T13:50:31.000Z</time>
      </trkpt>
      <trkpt lat="48.66889" lon="2.37508">
        <ele>55</ele>
        <time>2026-09-01T13:51:01.000Z</time>
      </trkpt>
      <trkpt lat="48.66884" lon="2.37542">
        <ele>53</ele>
        <time>2026-09-01T13:52:47.000Z</time>
      </trkpt>
      <trkpt lat="48.66895" lon="2.37572">
        <ele>49</ele>
        <time>2026-09-01T13:53:25.000Z</time>
      </trkpt>
      <trkpt lat="48.66915" lon="2.37559">
        <ele>48</ele>
        <time>2026-09-01T13:55:38.000Z</time>
      </trkpt>
      <trkpt lat="48.66921" lon="2.37592">
        <ele>45</ele>
        <time>2026-09-01T13:56:28.000Z</time>
      </trkpt>
      <trkpt lat="48.66905" lon="2.37615">
        <ele>45</ele>
        <time>2026-09-01T14:00:49.000Z</time>
      </trkpt>
      <trkpt lat="48.66895" lon="2.37585">
        <ele>48</ele>
        <time>2026-09-01T14:02:55.000Z</time>
      </trkpt>
      <trkpt lat="48.66884" lon="2.37555">
        <ele>52</ele>
        <time>2026-09-01T14:03:25.000Z</time>
      </trkpt>
      <trkpt lat="48.66886" lon="2.37521">
        <ele>54</ele>
        <time>2026-09-01T14:04:45.000Z</time>
      </trkpt>
      <trkpt lat="48.66896" lon="2.37489">
        <ele>57</ele>
        <time>2026-09-01T14:05:53.000Z</time>
      </trkpt>
      <trkpt lat="48.66906" lon="2.37459">
        <ele>57</ele>
        <time>2026-09-01T14:06:29.000Z</time>
      </trkpt>
      <trkpt lat="48.66927" lon="2.37442">
        <ele>57</ele>
        <time>2026-09-01T14:06:52.000Z</time>
      </trkpt>
      <trkpt lat="48.66931" lon="2.37476">
        <ele>52</ele>
        <time>2026-09-01T14:07:58.000Z</time>
      </trkpt>
      <trkpt lat="48.66937" lon="2.37509">
        <ele>48</ele>
        <time>2026-09-01T14:12:49.000Z</time>
      </trkpt>
      <trkpt lat="48.66959" lon="2.37499">
        <ele>47</ele>
        <time>2026-09-01T14:13:28.000Z</time>
      </trkpt>
      <trkpt lat="48.6698" lon="2.3751">
        <ele>43</ele>
        <time>2026-09-01T14:14:01.000Z</time>
      </trkpt>
      <trkpt lat="48.67" lon="2.37527">
        <ele>41</ele>
        <time>2026-09-01T14:14:31.000Z</time>
      </trkpt>
      <trkpt lat="48.67015" lon="2.37502">
        <ele>41</ele>
        <time>2026-09-01T14:15:27.000Z</time>
      </trkpt>
      <trkpt lat="48.67008" lon="2.37469">
        <ele>43</ele>
        <time>2026-09-01T14:15:50.000Z</time>
      </trkpt>
      <trkpt lat="48.66987" lon="2.37459">
        <ele>46</ele>
        <time>2026-09-01T14:17:37.000Z</time>
      </trkpt>
      <trkpt lat="48.6699" lon="2.37424">
        <ele>49</ele>
        <time>2026-09-01T14:21:20.000Z</time>
      </trkpt>
      <trkpt lat="48.67012" lon="2.37419">
        <ele>48</ele>
        <time>2026-09-01T14:22:23.000Z</time>
      </trkpt>
      <trkpt lat="48.67035" lon="2.37414">
        <ele>47</ele>
        <time>2026-09-01T14:24:17.000Z</time>
      </trkpt>
      <trkpt lat="48.67054" lon="2.37394">
        <ele>47</ele>
        <time>2026-09-01T14:24:45.000Z</time>
      </trkpt>
      <trkpt lat="48.67073" lon="2.37377">
        <ele>46</ele>
        <time>2026-09-01T14:25:07.000Z</time>
      </trkpt>
      <trkpt lat="48.67095" lon="2.37364">
        <ele>46</ele>
        <time>2026-09-01T14:25:30.000Z</time>
      </trkpt>
      <trkpt lat="48.67122" lon="2.37214">
        <ele>53.1</ele>
        <time>2026-09-01T14:27:54.000Z</time>
      </trkpt>
      <trkpt lat="48.67062" lon="2.37369">
        <ele>47</ele>
        <time>2026-09-01T14:28:29.000Z</time>
      </trkpt>
      <trkpt lat="48.67041" lon="2.37385">
        <ele>48</ele>
        <time>2026-09-01T14:28:56.000Z</time>
      </trkpt>
      <trkpt lat="48.67028" lon="2.37413">
        <ele>48</ele>
        <time>2026-09-01T14:29:41.000Z</time>
      </trkpt>
      <trkpt lat="48.6701" lon="2.37435">
        <ele>46</ele>
        <time>2026-09-01T14:30:44.000Z</time>
      </trkpt>
      <trkpt lat="48.66995" lon="2.3746">
        <ele>45</ele>
        <time>2026-09-01T14:31:38.000Z</time>
      </trkpt>
      <trkpt lat="48.67011" lon="2.37484">
        <ele>42</ele>
        <time>2026-09-01T14:32:36.000Z</time>
      </trkpt>
      <trkpt lat="48.67008" lon="2.37519">
        <ele>41</ele>
        <time>2026-09-01T14:34:00.000Z</time>
      </trkpt>
      <trkpt lat="48.66994" lon="2.37548">
        <ele>42</ele>
        <time>2026-09-01T14:34:28.000Z</time>
      </trkpt>
      <trkpt lat="48.66981" lon="2.37576">
        <ele>42</ele>
        <time>2026-09-01T14:34:56.000Z</time>
      </trkpt>
      <trkpt lat="48.66965" lon="2.37602">
        <ele>43</ele>
        <time>2026-09-01T14:35:15.000Z</time>
      </trkpt>
      <trkpt lat="48.66986" lon="2.3762">
        <ele>41</ele>
        <time>2026-09-01T14:35:51.000Z</time>
      </trkpt>
      <trkpt lat="48.67008" lon="2.37629">
        <ele>40</ele>
        <time>2026-09-01T14:36:14.000Z</time>
      </trkpt>
      <trkpt lat="48.6703" lon="2.37641">
        <ele>39</ele>
        <time>2026-09-01T14:36:34.000Z</time>
      </trkpt>
      <trkpt lat="48.67037" lon="2.37674">
        <ele>38</ele>
        <time>2026-09-01T14:37:02.000Z</time>
      </trkpt>
      <trkpt lat="48.67026" lon="2.37705">
        <ele>37</ele>
        <time>2026-09-01T14:37:27.000Z</time>
      </trkpt>
      <trkpt lat="48.67018" lon="2.37736">
        <ele>37</ele>
        <time>2026-09-01T14:37:53.000Z</time>
      </trkpt>
      <trkpt lat="48.66996" lon="2.37746">
        <ele>38</ele>
        <time>2026-09-01T14:38:16.000Z</time>
      </trkpt>
      <trkpt lat="48.6698" lon="2.3777">
        <ele>37</ele>
        <time>2026-09-01T14:38:38.000Z</time>
      </trkpt>
      <trkpt lat="48.66988" lon="2.37802">
        <ele>36</ele>
        <time>2026-09-01T14:38:55.000Z</time>
      </trkpt>
      <trkpt lat="48.66988" lon="2.37838">
        <ele>36</ele>
        <time>2026-09-01T14:39:18.000Z</time>
      </trkpt>
      <trkpt lat="48.67009" lon="2.37851">
        <ele>35</ele>
        <time>2026-09-01T14:39:55.000Z</time>
      </trkpt>
      <trkpt lat="48.67032" lon="2.37859">
        <ele>35</ele>
        <time>2026-09-01T14:40:18.000Z</time>
      </trkpt>
      <trkpt lat="48.67052" lon="2.37877">
        <ele>35</ele>
        <time>2026-09-01T14:40:39.000Z</time>
      </trkpt>
      <trkpt lat="48.67068" lon="2.379">
        <ele>35</ele>
        <time>2026-09-01T14:41:06.000Z</time>
      </trkpt>
      <trkpt lat="48.67079" lon="2.3793">
        <ele>34</ele>
        <time>2026-09-01T14:41:28.000Z</time>
      </trkpt>
      <trkpt lat="48.67077" lon="2.37966">
        <ele>35</ele>
        <time>2026-09-01T14:41:49.000Z</time>
      </trkpt>
      <trkpt lat="48.6707" lon="2.37998">
        <ele>35</ele>
        <time>2026-09-01T14:42:12.000Z</time>
      </trkpt>
      <trkpt lat="48.67064" lon="2.38033">
        <ele>35</ele>
        <time>2026-09-01T14:42:36.000Z</time>
      </trkpt>
      <trkpt lat="48.67063" lon="2.38067">
        <ele>35</ele>
        <time>2026-09-01T14:43:03.000Z</time>
      </trkpt>
    </trkseg>
  </trk>
</gpx>